Paratinga, Brazil
Current Conditions -  °F | °C
As of 8:00 AM on Friday 24 Oct 2014 (Local Time) from SBQV Reporting Station
Broken Clouds Broken Clouds  
Wind Chill: 63°   Ceiling: 700
Heat Index: 63°   Visibility: 6mi
Dew Point: 63°   Wind: 12mph
Humidity: 100%   Direction: 130°SE
Pressure: 30.18"   Gusts: NA
Location:  12.69°S, 43.18°W
Report Text: SBQV 241100Z 13010KT 9999 FEW005 BKN007 17/17 Q1022
Loading
Personal Weather Stations






























Interactive Weather Map
Tropical Storm Tracking
New forecast layout! Learn more

10-Day Weather Forecast

Advertisements
Track Severe Weather on mobile